Wetterdaten: Mittwoch, 20.01.2016
Datum Zeit Temp. A. Temp. A. min Temp. A. max Feuchte A. Bod.Feucht 4 Luftdruck Regen Wind Richtung Richtung Sonnenschein ET Solar Taupunkt Windchill Windben Empfang
20.01.2016 00:00 -9,9 C -9,9 C -9,8 C 92 % 0 cb 1020,0 hPa 0,0 l/m 1,6 km/h (1 Bft) N-NW 337 0 min 0,000 mm 0 W/m -10,9 C -9,9 C 4,8 km/h (1 Bft) 99,56 %
20.01.2016 00:10 -10,0 C -10,0 C -9,9 C 92 % 0 cb 1020,0 hPa 0,0 l/m 1,6 km/h (1 Bft) N-NW 337 0 min 0,000 mm 0 W/m -11,0 C -10,0 C 3,2 km/h (1 Bft) 100,00 %
20.01.2016 00:20 -10,2 C -10,2 C -10,0 C 91 % 0 cb 1019,9 hPa 0,0 l/m 0,0 km/h (0 Bft) N 0 0 min 0,000 mm 0 W/m -11,4 C -10,2 C 0,0 km/h (0 Bft) 100,00 %
20.01.2016 00:30 -10,4 C -10,4 C -10,2 C 92 % 0 cb 1020,0 hPa 0,0 l/m 0,0 km/h (0 Bft) N-NW 337 0 min 0,000 mm 0 W/m -11,4 C -10,4 C 1,6 km/h (1 Bft) 100,00 %
20.01.2016 00:40 -10,5 C -10,5 C -10,4 C 92 % 0 cb 1020,0 hPa 0,0 l/m 0,0 km/h (0 Bft) N-NW 337 0 min 0,000 mm 0 W/m -11,5 C -10,5 C 1,6 km/h (1 Bft) 100,00 %
20.01.2016 00:50 -10,5 C -10,5 C -10,4 C 92 % 0 cb 1019,9 hPa 0,0 l/m 0,0 km/h (0 Bft) N-NW 337 0 min 0,000 mm 0 W/m -11,5 C -10,5 C 3,2 km/h (1 Bft) 100,00 %
20.01.2016 01:00 -10,6 C -10,6 C -10,5 C 92 % 0 cb 1019,9 hPa 0,0 l/m 1,6 km/h (1 Bft) N-NW 337 0 min 0,000 mm 0 W/m -11,6 C -10,6 C 6,4 km/h (2 Bft) 100,00 %
20.01.2016 01:10 -10,5 C -10,6 C -10,5 C 92 % 0 cb 1019,9 hPa 0,0 l/m 1,6 km/h (1 Bft) N-NW 337 0 min 0,000 mm 0 W/m -11,5 C -10,5 C 6,4 km/h (2 Bft) 99,56 %
20.01.2016 01:20 -10,6 C -10,6 C -10,5 C 91 % 0 cb 1019,9 hPa 0,0 l/m 0,0 km/h (0 Bft) N-NW 337 0 min 0,000 mm 0 W/m -11,8 C -10,6 C 3,2 km/h (1 Bft) 100,00 %
20.01.2016 01:30 -10,8 C -10,8 C -10,6 C 91 % 0 cb 1019,9 hPa 0,0 l/m 0,0 km/h (0 Bft) N-NW 337 0 min 0,000 mm 0 W/m -12,0 C -10,8 C 3,2 km/h (1 Bft) 100,00 %
20.01.2016 01:40 -10,9 C -10,9 C -10,8 C 91 % 0 cb 1020,0 hPa 0,0 l/m 0,0 km/h (0 Bft) N-NW 337 0 min 0,000 mm 0 W/m -12,1 C -10,9 C 1,6 km/h (1 Bft) 100,00 %
20.01.2016 01:50 -11,1 C -11,1 C -10,9 C 91 % 0 cb 1020,0 hPa 0,0 l/m 0,0 km/h (0 Bft) N 0 0 min 0,000 mm 0 W/m -12,3 C -11,1 C 0,0 km/h (0 Bft) 100,00 %
20.01.2016 02:00 -11,2 C -11,2 C -11,1 C 91 % 0 cb 1019,9 hPa 0,0 l/m 0,0 km/h (0 Bft) N-NW 337 0 min 0,000 mm 0 W/m -12,4 C -11,2 C 1,6 km/h (1 Bft) 100,00 %
20.01.2016 02:10 -11,3 C -11,3 C -11,2 C 91 % 0 cb 1019,9 hPa 0,0 l/m 0,0 km/h (0 Bft) N-NW 337 0 min 0,000 mm 0 W/m -12,5 C -11,3 C 1,6 km/h (1 Bft) 98,68 %
20.01.2016 02:20 -11,4 C -11,5 C -11,3 C 91 % 0 cb 1020,2 hPa 0,0 l/m 0,0 km/h (0 Bft) N-NW 337 0 min 0,000 mm 0 W/m -12,6 C -11,4 C 1,6 km/h (1 Bft) 97,81 %
20.01.2016 02:30 -11,4 C -11,5 C -11,4 C 92 % 0 cb 1020,3 hPa 0,0 l/m 0,0 km/h (0 Bft) N-NW 337 0 min 0,000 mm 0 W/m -12,4 C -11,4 C 3,2 km/h (1 Bft) 100,00 %
20.01.2016 02:40 -11,4 C -11,4 C -11,4 C 92 % 0 cb 1020,2 hPa 0,0 l/m 0,0 km/h (0 Bft) N-NW 337 0 min 0,000 mm 0 W/m -12,4 C -11,4 C 1,6 km/h (1 Bft) 100,00 %
20.01.2016 02:50 -11,5 C -11,5 C -11,4 C 91 % 0 cb 1020,4 hPa 0,0 l/m 0,0 km/h (0 Bft) N-NW 337 0 min 0,000 mm 0 W/m -12,7 C -11,5 C 1,6 km/h (1 Bft) 100,00 %
20.01.2016 03:00 -11,7 C -11,7 C -11,5 C 91 % 0 cb 1020,5 hPa 0,0 l/m 0,0 km/h (0 Bft) N-NW 337 0 min 0,000 mm 0 W/m -12,9 C -11,7 C 1,6 km/h (1 Bft) 100,00 %
20.01.2016 03:10 -11,8 C -11,8 C -11,7 C 91 % 0 cb 1020,5 hPa 0,0 l/m 0,0 km/h (0 Bft) N 0 0 min 0,000 mm 0 W/m -13,0 C -11,8 C 0,0 km/h (0 Bft) 85,53 %
20.01.2016 03:20 -11,9 C -11,9 C -11,8 C 91 % 0 cb 1020,5 hPa 0,0 l/m 0,0 km/h (0 Bft) N 0 0 min 0,000 mm 0 W/m -13,1 C -11,9 C 0,0 km/h (0 Bft) 100,00 %
20.01.2016 03:30 -12,0 C -12,1 C -11,9 C 92 % 0 cb 1020,6 hPa 0,0 l/m 0,0 km/h (0 Bft) N 0 0 min 0,000 mm 0 W/m -13,0 C -12,0 C 0,0 km/h (0 Bft) 100,00 %
20.01.2016 03:40 -12,2 C -12,2 C -12,0 C 91 % 0 cb 1020,6 hPa 0,0 l/m 0,0 km/h (0 Bft) N-NW 337 0 min 0,000 mm 0 W/m -13,4 C -12,2 C 1,6 km/h (1 Bft) 100,00 %
20.01.2016 03:50 -12,2 C -12,2 C -12,2 C 92 % 0 cb 1020,5 hPa 0,0 l/m 0,0 km/h (0 Bft) N-NW 337 0 min 0,000 mm 0 W/m -13,2 C -12,2 C 1,6 km/h (1 Bft) 100,00 %
20.01.2016 04:00 -12,1 C -12,2 C -12,1 C 92 % 0 cb 1020,4 hPa 0,0 l/m 0,0 km/h (0 Bft) N-NW 337 0 min 0,000 mm 0 W/m -13,1 C -12,1 C 1,6 km/h (1 Bft) 98,68 %
20.01.2016 04:10 -12,0 C -12,1 C -12,0 C 92 % 0 cb 1020,5 hPa 0,0 l/m 0,0 km/h (0 Bft) N-NW 337 0 min 0,000 mm 0 W/m -13,0 C -12,0 C 1,6 km/h (1 Bft) 100,00 %
20.01.2016 04:20 -12,0 C -12,0 C -12,0 C 92 % 0 cb 1020,6 hPa 0,0 l/m 0,0 km/h (0 Bft) N-NW 337 0 min 0,000 mm 0 W/m -13,0 C -12,0 C 1,6 km/h (1 Bft) 100,00 %
20.01.2016 04:30 -12,0 C -12,0 C -12,0 C 92 % 0 cb 1020,6 hPa 0,0 l/m 0,0 km/h (0 Bft) N-NW 337 0 min 0,000 mm 0 W/m -13,0 C -12,0 C 1,6 km/h (1 Bft) 100,00 %
20.01.2016 04:40 -12,1 C -12,1 C -12,0 C 92 % 0 cb 1020,8 hPa 0,0 l/m 0,0 km/h (0 Bft) N-NW 337 0 min 0,000 mm 0 W/m -13,1 C -12,1 C 1,6 km/h (1 Bft) 100,00 %
20.01.2016 04:50 -12,2 C -12,2 C -12,1 C 91 % 0 cb 1020,9 hPa 0,0 l/m 0,0 km/h (0 Bft) N 0 0 min 0,000 mm 0 W/m -13,4 C -12,2 C 0,0 km/h (0 Bft) 99,56 %
20.01.2016 05:00 -12,3 C -12,3 C -12,2 C 91 % 0 cb 1021,0 hPa 0,0 l/m 0,0 km/h (0 Bft) N-NW 337 0 min 0,000 mm 0 W/m -13,5 C -12,3 C 1,6 km/h (1 Bft) 100,00 %
20.01.2016 05:10 -12,4 C -12,4 C -12,3 C 92 % 0 cb 1020,9 hPa 0,0 l/m 0,0 km/h (0 Bft) N 0 0 min 0,000 mm 0 W/m -13,4 C -12,4 C 0,0 km/h (0 Bft) 100,00 %
20.01.2016 05:20 -12,3 C -12,4 C -12,3 C 92 % 0 cb 1021,0 hPa 0,0 l/m 0,0 km/h (0 Bft) N-NW 337 0 min 0,000 mm 0 W/m -13,3 C -12,3 C 1,6 km/h (1 Bft) 100,00 %
20.01.2016 05:30 -12,3 C -12,3 C -12,3 C 92 % 0 cb 1021,0 hPa 0,0 l/m 0,0 km/h (0 Bft) N 0 0 min 0,000 mm 0 W/m -13,3 C -12,3 C 0,0 km/h (0 Bft) 100,00 %
20.01.2016 05:40 -12,3 C -12,3 C -12,3 C 92 % 0 cb 1020,9 hPa 0,0 l/m 0,0 km/h (0 Bft) N-NW 337 0 min 0,000 mm 0 W/m -13,3 C -12,3 C 1,6 km/h (1 Bft) 92,11 %
20.01.2016 05:50 -12,3 C -12,4 C -12,3 C 92 % 0 cb 1020,9 hPa 0,0 l/m 0,0 km/h (0 Bft) N-NW 337 0 min 0,000 mm 0 W/m -13,3 C -12,3 C 1,6 km/h (1 Bft) 98,68 %
20.01.2016 06:00 -12,4 C -12,4 C -12,3 C 92 % 0 cb 1021,1 hPa 0,0 l/m 0,0 km/h (0 Bft) N-NW 337 0 min 0,000 mm 0 W/m -13,4 C -12,4 C 1,6 km/h (1 Bft) 100,00 %
20.01.2016 06:10 -12,4 C -12,4 C -12,3 C 92 % 0 cb 1021,1 hPa 0,0 l/m 0,0 km/h (0 Bft) N-NW 337 0 min 0,000 mm 0 W/m -13,4 C -12,4 C 1,6 km/h (1 Bft) 100,00 %
20.01.2016 06:20 -12,4 C -12,5 C -12,4 C 92 % 0 cb 1021,2 hPa 0,0 l/m 0,0 km/h (0 Bft) N-NW 337 0 min 0,000 mm 0 W/m -13,4 C -12,4 C 1,6 km/h (1 Bft) 100,00 %
20.01.2016 06:30 -12,4 C -12,4 C -12,4 C 92 % 0 cb 1021,1 hPa 0,0 l/m 0,0 km/h (0 Bft) N-NW 337 0 min 0,000 mm 0 W/m -13,4 C -12,4 C 1,6 km/h (1 Bft) 100,00 %
20.01.2016 06:40 -12,3 C -12,4 C -12,3 C 92 % 0 cb 1021,1 hPa 0,0 l/m 0,0 km/h (0 Bft) N 0 0 min 0,000 mm 0 W/m -13,3 C -12,3 C 0,0 km/h (0 Bft) 100,00 %
20.01.2016 06:50 -12,3 C -12,3 C -12,3 C 92 % 0 cb 1021,1 hPa 0,0 l/m 0,0 km/h (0 Bft) N 0 0 min 0,000 mm 0 W/m -13,3 C -12,3 C 0,0 km/h (0 Bft) 100,00 %
20.01.2016 07:00 -12,3 C -12,3 C -12,3 C 92 % 0 cb 1021,1 hPa 0,0 l/m 0,0 km/h (0 Bft) N 0 0 min 0,000 mm 0 W/m -13,3 C -12,3 C 0,0 km/h (0 Bft) 100,00 %
20.01.2016 07:10 -12,3 C -12,3 C -12,3 C 92 % 0 cb 1021,1 hPa 0,0 l/m 0,0 km/h (0 Bft) N-NW 337 0 min 0,000 mm 0 W/m -13,3 C -12,3 C 1,6 km/h (1 Bft) 100,00 %
20.01.2016 07:20 -12,4 C -12,4 C -12,3 C 91 % 0 cb 1021,1 hPa 0,0 l/m 0,0 km/h (0 Bft) N 0 0 min 0,000 mm 0 W/m -13,6 C -12,4 C 0,0 km/h (0 Bft) 98,68 %
20.01.2016 07:30 -12,4 C -12,4 C -12,3 C 92 % 0 cb 1021,2 hPa 0,0 l/m 0,0 km/h (0 Bft) N-NW 337 0 min 0,000 mm 0 W/m -13,4 C -12,4 C 1,6 km/h (1 Bft) 100,00 %
20.01.2016 07:40 -12,4 C -12,4 C -12,3 C 92 % 0 cb 1021,2 hPa 0,0 l/m 0,0 km/h (0 Bft) N-NW 337 0 min 0,000 mm 0 W/m -13,4 C -12,4 C 1,6 km/h (1 Bft) 100,00 %
20.01.2016 07:50 -12,4 C -12,4 C -12,4 C 91 % 0 cb 1021,3 hPa 0,0 l/m 0,0 km/h (0 Bft) N 0 0 min 0,000 mm 0 W/m -13,6 C -12,4 C 0,0 km/h (0 Bft) 100,00 %
20.01.2016 08:00 -12,4 C -12,4 C -12,4 C 92 % 0 cb 1021,4 hPa 0,0 l/m 0,0 km/h (0 Bft) N 0 0 min 0,000 mm 0 W/m -13,4 C -12,4 C 0,0 km/h (0 Bft) 100,00 %
20.01.2016 08:10 -12,4 C -12,4 C -12,4 C 92 % 0 cb 1021,5 hPa 0,0 l/m 0,0 km/h (0 Bft) N-NW 337 0 min 0,000 mm 0 W/m -13,4 C -12,4 C 1,6 km/h (1 Bft) 100,00 %
20.01.2016 08:20 -12,5 C -12,5 C -12,4 C 91 % 0 cb 1021,6 hPa 0,0 l/m 0,0 km/h (0 Bft) N-NW 337 0 min 0,000 mm 0 W/m -13,7 C -12,5 C 1,6 km/h (1 Bft) 100,00 %
20.01.2016 08:30 -12,5 C -12,6 C -12,5 C 92 % 0 cb 1021,8 hPa 0,0 l/m 0,0 km/h (0 Bft) N 0 0 min 0,000 mm 7 W/m -13,5 C -12,5 C 0,0 km/h (0 Bft) 100,00 %
20.01.2016 08:40 -12,4 C -12,6 C -12,4 C 92 % 0 cb 1021,9 hPa 0,0 l/m 0,0 km/h (0 Bft) N-NW 337 0 min 0,000 mm 16 W/m -13,4 C -12,4 C 1,6 km/h (1 Bft) 100,00 %
20.01.2016 08:50 -12,2 C -12,4 C -12,2 C 92 % 0 cb 1022,0 hPa 0,0 l/m 0,0 km/h (0 Bft) N 0 0 min 0,000 mm 28 W/m -13,2 C -12,2 C 0,0 km/h (0 Bft) 100,00 %
20.01.2016 09:00 -12,1 C -12,2 C -12,1 C 92 % 0 cb 1022,0 hPa 0,0 l/m 0,0 km/h (0 Bft) N 0 0 min 0,000 mm 25 W/m -13,1 C -12,1 C 0,0 km/h (0 Bft) 100,00 %
20.01.2016 09:10 -12,0 C -12,1 C -12,0 C 92 % 0 cb 1022,1 hPa 0,0 l/m 0,0 km/h (0 Bft) N 0 0 min 0,000 mm 25 W/m -13,0 C -12,0 C 0,0 km/h (0 Bft) 100,00 %
20.01.2016 09:20 -11,7 C -12,0 C -11,7 C 93 % 0 cb 1022,2 hPa 0,0 l/m 0,0 km/h (0 Bft) N 0 0 min 0,000 mm 40 W/m -12,6 C -11,7 C 0,0 km/h (0 Bft) 95,61 %
20.01.2016 09:30 -11,3 C -11,7 C -11,3 C 93 % 0 cb 1022,3 hPa 0,0 l/m 0,0 km/h (0 Bft) N 0 0 min 0,000 mm 23 W/m -12,2 C -11,3 C 0,0 km/h (0 Bft) 100,00 %
20.01.2016 09:40 -11,2 C -11,3 C -11,2 C 92 % 0 cb 1022,4 hPa 0,0 l/m 0,0 km/h (0 Bft) N 0 0 min 0,000 mm 26 W/m -12,2 C -11,2 C 0,0 km/h (0 Bft) 100,00 %
20.01.2016 09:50 -10,9 C -11,2 C -10,9 C 93 % 0 cb 1022,4 hPa 0,0 l/m 0,0 km/h (0 Bft) N-NW 337 0 min 0,000 mm 28 W/m -11,8 C -10,9 C 1,6 km/h (1 Bft) 100,00 %
20.01.2016 10:00 -10,6 C -10,8 C -10,6 C 93 % 0 cb 1022,6 hPa 0,0 l/m 0,0 km/h (0 Bft) N 0 0 min 0,000 mm 37 W/m -11,5 C -10,6 C 0,0 km/h (0 Bft) 99,56 %
20.01.2016 10:10 -10,2 C -10,6 C -10,2 C 93 % 0 cb 1022,7 hPa 0,0 l/m 0,0 km/h (0 Bft) N 0 0 min 0,000 mm 97 W/m -11,1 C -10,2 C 0,0 km/h (0 Bft) 96,93 %
20.01.2016 10:20 -9,7 C -10,3 C -9,7 C 94 % 0 cb 1022,7 hPa 0,0 l/m 0,0 km/h (0 Bft) N 0 10 min 0,000 mm 183 W/m -10,5 C -9,7 C 0,0 km/h (0 Bft) 99,12 %
20.01.2016 10:30 -9,1 C -9,7 C -9,1 C 93 % 0 cb 1022,9 hPa 0,0 l/m 0,0 km/h (0 Bft) N 0 0 min 0,000 mm 148 W/m -10,0 C -9,1 C 0,0 km/h (0 Bft) 100,00 %
20.01.2016 10:40 -8,6 C -9,1 C -8,6 C 93 % 0 cb 1022,9 hPa 0,0 l/m 0,0 km/h (0 Bft) N 0 0 min 0,000 mm 139 W/m -9,5 C -8,6 C 0,0 km/h (0 Bft) 100,00 %
20.01.2016 10:50 -8,2 C -8,6 C -8,1 C 92 % 0 cb 1022,9 hPa 0,0 l/m 0,0 km/h (0 Bft) N 0 10 min 0,000 mm 162 W/m -9,3 C -8,2 C 0,0 km/h (0 Bft) 99,56 %
20.01.2016 11:00 -7,6 C -8,1 C -7,6 C 92 % 0 cb 1023,0 hPa 0,0 l/m 0,0 km/h (0 Bft) N 0 10 min 0,025 mm 204 W/m -8,7 C -7,6 C 0,0 km/h (0 Bft) 100,00 %
20.01.2016 11:10 -7,1 C -7,6 C -7,1 C 92 % 0 cb 1023,0 hPa 0,0 l/m 0,0 km/h (0 Bft) N 0 10 min 0,000 mm 172 W/m -8,2 C -7,1 C 0,0 km/h (0 Bft) 100,00 %
20.01.2016 11:20 -6,8 C -7,1 C -6,8 C 91 % 0 cb 1023,0 hPa 0,0 l/m 0,0 km/h (0 Bft) N 0 0 min 0,000 mm 130 W/m -8,0 C -6,8 C 0,0 km/h (0 Bft) 100,00 %
20.01.2016 11:30 -6,2 C -6,8 C -6,2 C 92 % 0 cb 1023,0 hPa 0,0 l/m 0,0 km/h (0 Bft) N 0 10 min 0,000 mm 413 W/m -7,3 C -6,2 C 0,0 km/h (0 Bft) 100,00 %
20.01.2016 11:40 -5,5 C -6,2 C -5,5 C 90 % 0 cb 1023,1 hPa 0,0 l/m 0,0 km/h (0 Bft) N 0 10 min 0,000 mm 353 W/m -6,9 C -5,5 C 0,0 km/h (0 Bft) 100,00 %
20.01.2016 11:50 -5,2 C -5,5 C -5,2 C 88 % 0 cb 1023,0 hPa 0,0 l/m 0,0 km/h (0 Bft) N 0 10 min 0,000 mm 229 W/m -6,9 C -5,2 C 0,0 km/h (0 Bft) 100,00 %
20.01.2016 12:00 -5,2 C -5,2 C -5,1 C 88 % 0 cb 1023,0 hPa 0,0 l/m 0,0 km/h (0 Bft) N 0 10 min 0,051 mm 188 W/m -6,9 C -5,2 C 0,0 km/h (0 Bft) 100,00 %
20.01.2016 12:10 -4,8 C -5,2 C -4,8 C 88 % 0 cb 1023,0 hPa 0,0 l/m 0,0 km/h (0 Bft) N 0 10 min 0,000 mm 292 W/m -6,5 C -4,8 C 0,0 km/h (0 Bft) 100,00 %
20.01.2016 12:20 -4,3 C -4,8 C -4,3 C 87 % 0 cb 1022,9 hPa 0,0 l/m 0,0 km/h (0 Bft) N 0 10 min 0,000 mm 410 W/m -6,1 C -4,3 C 0,0 km/h (0 Bft) 100,00 %
20.01.2016 12:30 -3,7 C -4,3 C -3,7 C 86 % 0 cb 1022,8 hPa 0,0 l/m 0,0 km/h (0 Bft) N 0 10 min 0,000 mm 427 W/m -5,7 C -3,7 C 0,0 km/h (0 Bft) 100,00 %
20.01.2016 12:40 -3,2 C -3,7 C -3,2 C 85 % 0 cb 1022,8 hPa 0,0 l/m 0,0 km/h (0 Bft) N 360 10 min 0,000 mm 279 W/m -5,4 C -3,2 C 3,2 km/h (1 Bft) 100,00 %
20.01.2016 12:50 -3,0 C -3,1 C -2,9 C 84 % 0 cb 1022,8 hPa 0,0 l/m 1,6 km/h (1 Bft) O-NO 67 10 min 0,000 mm 221 W/m -5,3 C -3,0 C 4,8 km/h (1 Bft) 100,00 %
20.01.2016 13:00 -2,8 C -3,0 C -2,8 C 84 % 0 cb 1022,7 hPa 0,0 l/m 1,6 km/h (1 Bft) O 90 10 min 0,076 mm 174 W/m -5,1 C -2,8 C 4,8 km/h (1 Bft) 100,00 %
20.01.2016 13:10 -2,7 C -2,8 C -2,7 C 84 % 0 cb 1022,6 hPa 0,0 l/m 1,6 km/h (1 Bft) O 90 10 min 0,000 mm 353 W/m -5,0 C -2,7 C 4,8 km/h (1 Bft) 100,00 %
20.01.2016 13:20 -1,8 C -2,7 C -1,8 C 82 % 0 cb 1022,6 hPa 0,0 l/m 1,6 km/h (1 Bft) O 90 10 min 0,000 mm 371 W/m -4,5 C -1,8 C 4,8 km/h (1 Bft) 99,12 %
20.01.2016 13:30 -1,2 C -1,8 C -1,2 C 80 % 0 cb 1022,5 hPa 0,2 l/m 1,6 km/h (1 Bft) O-SO 112 10 min 0,000 mm 381 W/m -4,2 C -1,2 C 4,8 km/h (1 Bft) 99,56 %
20.01.2016 13:40 -1,1 C -1,2 C -1,1 C 79 % 0 cb 1022,5 hPa 0,0 l/m 3,2 km/h (1 Bft) O-SO 112 10 min 0,000 mm 418 W/m -4,3 C -1,1 C 4,8 km/h (1 Bft) 100,00 %
20.01.2016 13:50 -1,1 C -1,2 C -1,1 C 80 % 0 cb 1022,5 hPa 0,0 l/m 1,6 km/h (1 Bft) O-SO 112 10 min 0,000 mm 287 W/m -4,1 C -1,1 C 4,8 km/h (1 Bft) 100,00 %
20.01.2016 14:00 -1,1 C -1,1 C -1,1 C 80 % 0 cb 1022,3 hPa 0,0 l/m 1,6 km/h (1 Bft) O-SO 112 10 min 0,076 mm 260 W/m -4,1 C -1,1 C 4,8 km/h (1 Bft) 100,00 %
20.01.2016 14:10 -1,0 C -1,1 C -1,0 C 81 % 0 cb 1022,3 hPa 0,0 l/m 1,6 km/h (1 Bft) O-SO 112 10 min 0,000 mm 251 W/m -3,8 C -1,0 C 4,8 km/h (1 Bft) 100,00 %
20.01.2016 14:20 -0,6 C -1,0 C -0,6 C 79 % 0 cb 1022,2 hPa 0,0 l/m 0,0 km/h (0 Bft) O-SO 112 10 min 0,000 mm 348 W/m -3,8 C -0,6 C 3,2 km/h (1 Bft) 100,00 %
20.01.2016 14:30 -0,4 C -0,6 C -0,4 C 77 % 0 cb 1022,1 hPa 0,0 l/m 0,0 km/h (0 Bft) N 0 10 min 0,000 mm 264 W/m -3,9 C -0,4 C 0,0 km/h (0 Bft) 100,00 %
20.01.2016 14:40 -0,2 C -0,4 C -0,2 C 76 % 0 cb 1022,0 hPa 0,0 l/m 1,6 km/h (1 Bft) O-SO 112 10 min 0,000 mm 234 W/m -3,9 C -0,2 C 3,2 km/h (1 Bft) 100,00 %
20.01.2016 14:50 0,0 C -0,2 C 0,0 C 75 % 0 cb 1021,9 hPa 0,0 l/m 0,0 km/h (0 Bft) O-SO 112 10 min 0,000 mm 339 W/m -3,9 C 0,0 C 4,8 km/h (1 Bft) 100,00 %
20.01.2016 15:00 -0,1 C -0,1 C 0,1 C 75 % 0 cb 1022,0 hPa 0,0 l/m 0,0 km/h (0 Bft) O-SO 112 0 min 0,076 mm 139 W/m -4,0 C -0,1 C 4,8 km/h (1 Bft) 100,00 %
20.01.2016 15:10 0,0 C -0,1 C 0,0 C 73 % 0 cb 1022,0 hPa 0,0 l/m 0,0 km/h (0 Bft) N 0 10 min 0,000 mm 186 W/m -4,2 C 0,0 C 0,0 km/h (0 Bft) 100,00 %
20.01.2016 15:20 -0,1 C -0,1 C 0,0 C 73 % 0 cb 1022,0 hPa 0,0 l/m 0,0 km/h (0 Bft) N 0 0 min 0,000 mm 105 W/m -4,3 C -0,1 C 0,0 km/h (0 Bft) 100,00 %
20.01.2016 15:30 -0,3 C -0,3 C -0,1 C 75 % 0 cb 1022,1 hPa 0,0 l/m 1,6 km/h (1 Bft) O-SO 112 0 min 0,000 mm 97 W/m -4,2 C -0,3 C 4,8 km/h (1 Bft) 100,00 %
20.01.2016 15:40 -0,3 C -0,3 C -0,3 C 73 % 0 cb 1022,2 hPa 0,0 l/m 0,0 km/h (0 Bft) O-SO 112 0 min 0,000 mm 127 W/m -4,5 C -0,3 C 1,6 km/h (1 Bft) 100,00 %
20.01.2016 15:50 -0,3 C -0,3 C -0,3 C 75 % 0 cb 1022,3 hPa 0,0 l/m 0,0 km/h (0 Bft) N 0 0 min 0,000 mm 83 W/m -4,2 C -0,3 C 0,0 km/h (0 Bft) 100,00 %
20.01.2016 16:00 -0,2 C -0,3 C -0,2 C 75 % 0 cb 1022,4 hPa 0,0 l/m 0,0 km/h (0 Bft) O-SO 112 0 min 0,025 mm 54 W/m -4,1 C -0,2 C 3,2 km/h (1 Bft) 100,00 %
20.01.2016 16:10 -0,3 C -0,3 C -0,2 C 72 % 0 cb 1022,5 hPa 0,0 l/m 0,0 km/h (0 Bft) O-SO 112 0 min 0,000 mm 40 W/m -4,7 C -0,3 C 3,2 km/h (1 Bft) 100,00 %
20.01.2016 16:20 -0,3 C -0,3 C -0,2 C 73 % 0 cb 1022,3 hPa 0,0 l/m 1,6 km/h (1 Bft) O-SO 112 0 min 0,000 mm 32 W/m -4,5 C -0,3 C 4,8 km/h (1 Bft) 99,12 %
20.01.2016 16:30 -0,3 C -0,3 C -0,3 C 76 % 0 cb 1022,3 hPa 0,0 l/m 0,0 km/h (0 Bft) O-SO 112 0 min 0,000 mm 28 W/m -4,0 C -0,3 C 3,2 km/h (1 Bft) 99,56 %
20.01.2016 16:40 -0,4 C -0,4 C -0,3 C 78 % 0 cb 1022,4 hPa 0,0 l/m 0,0 km/h (0 Bft) O-SO 112 0 min 0,000 mm 19 W/m -3,8 C -0,4 C 3,2 km/h (1 Bft) 99,56 %
20.01.2016 16:50 -0,5 C -0,5 C -0,4 C 78 % 0 cb 1022,5 hPa 0,0 l/m 0,0 km/h (0 Bft) O-SO 112 0 min 0,000 mm 12 W/m -3,9 C -0,5 C 3,2 km/h (1 Bft) 100,00 %
20.01.2016 17:00 -0,6 C -0,6 C -0,5 C 80 % 0 cb 1022,5 hPa 0,0 l/m 0,0 km/h (0 Bft) N 0 0 min 0,000 mm 7 W/m -3,6 C -0,6 C 0,0 km/h (0 Bft) 100,00 %
20.01.2016 17:10 -0,7 C -0,7 C -0,6 C 80 % 0 cb 1022,6 hPa 0,0 l/m 1,6 km/h (1 Bft) S-SW 202 0 min 0,000 mm 0 W/m -3,7 C -0,7 C 4,8 km/h (1 Bft) 100,00 %
20.01.2016 17:20 -0,8 C -0,8 C -0,7 C 81 % 0 cb 1022,6 hPa 0,0 l/m 1,6 km/h (1 Bft) S 180 0 min 0,000 mm 0 W/m -3,6 C -0,8 C 4,8 km/h (1 Bft) 100,00 %
20.01.2016 17:30 -0,8 C -0,8 C -0,8 C 81 % 0 cb 1022,7 hPa 0,0 l/m 1,6 km/h (1 Bft) S 180 0 min 0,000 mm 0 W/m -3,6 C -0,8 C 4,8 km/h (1 Bft) 100,00 %
20.01.2016 17:40 -0,9 C -0,9 C -0,8 C 81 % 0 cb 1022,8 hPa 0,0 l/m 0,0 km/h (0 Bft) S 180 0 min 0,000 mm 0 W/m -3,7 C -0,9 C 1,6 km/h (1 Bft) 100,00 %
20.01.2016 17:50 -1,0 C -1,0 C -0,9 C 82 % 0 cb 1022,9 hPa 0,0 l/m 0,0 km/h (0 Bft) S 180 0 min 0,000 mm 0 W/m -3,7 C -1,0 C 4,8 km/h (1 Bft) 100,00 %
20.01.2016 18:00 -1,1 C -1,1 C -1,0 C 81 % 0 cb 1022,9 hPa 0,0 l/m 1,6 km/h (1 Bft) S 180 0 min 0,000 mm 0 W/m -3,9 C -1,1 C 4,8 km/h (1 Bft) 100,00 %
20.01.2016 18:10 -1,1 C -1,1 C -1,1 C 81 % 0 cb 1023,0 hPa 0,0 l/m 1,6 km/h (1 Bft) S 180 0 min 0,000 mm 0 W/m -3,9 C -1,1 C 4,8 km/h (1 Bft) 100,00 %
20.01.2016 18:20 -1,2 C -1,2 C -1,1 C 81 % 0 cb 1023,0 hPa 0,0 l/m 0,0 km/h (0 Bft) S 180 0 min 0,000 mm 0 W/m -4,0 C -1,2 C 3,2 km/h (1 Bft) 100,00 %
20.01.2016 18:30 -1,2 C -1,2 C -1,2 C 82 % 0 cb 1023,1 hPa 0,0 l/m 0,0 km/h (0 Bft) N 0 0 min 0,000 mm 0 W/m -3,9 C -1,2 C 0,0 km/h (0 Bft) 100,00 %
20.01.2016 18:40 -1,3 C -1,3 C -1,2 C 83 % 0 cb 1023,1 hPa 0,0 l/m 0,0 km/h (0 Bft) N 0 0 min 0,000 mm 0 W/m -3,8 C -1,3 C 0,0 km/h (0 Bft) 100,00 %
20.01.2016 18:50 -1,3 C -1,3 C -1,3 C 83 % 0 cb 1023,1 hPa 0,0 l/m 0,0 km/h (0 Bft) N 0 0 min 0,000 mm 0 W/m -3,8 C -1,3 C 0,0 km/h (0 Bft) 99,56 %
20.01.2016 19:00 -1,3 C -1,3 C -1,3 C 84 % 0 cb 1023,2 hPa 0,0 l/m 0,0 km/h (0 Bft) N 0 0 min 0,000 mm 0 W/m -3,6 C -1,3 C 0,0 km/h (0 Bft) 100,00 %
20.01.2016 19:10 -1,4 C -1,4 C -1,3 C 84 % 0 cb 1023,2 hPa 0,0 l/m 1,6 km/h (1 Bft) S 180 0 min 0,000 mm 0 W/m -3,7 C -1,4 C 4,8 km/h (1 Bft) 99,56 %
20.01.2016 19:20 -1,3 C -1,4 C -1,3 C 84 % 0 cb 1023,3 hPa 0,0 l/m 1,6 km/h (1 Bft) S 180 0 min 0,000 mm 0 W/m -3,6 C -1,3 C 4,8 km/h (1 Bft) 99,12 %
20.01.2016 19:30 -1,4 C -1,5 C -1,3 C 84 % 0 cb 1023,3 hPa 0,0 l/m 0,0 km/h (0 Bft) S 180 0 min 0,000 mm 0 W/m -3,7 C -1,4 C 1,6 km/h (1 Bft) 99,56 %
20.01.2016 19:40 -1,6 C -1,6 C -1,4 C 84 % 0 cb 1023,5 hPa 0,0 l/m 0,0 km/h (0 Bft) S 180 0 min 0,000 mm 0 W/m -3,9 C -1,6 C 3,2 km/h (1 Bft) 100,00 %
20.01.2016 19:50 -1,6 C -1,6 C -1,6 C 86 % 0 cb 1023,6 hPa 0,0 l/m 0,0 km/h (0 Bft) S 180 0 min 0,000 mm 0 W/m -3,6 C -1,6 C 3,2 km/h (1 Bft) 100,00 %
20.01.2016 20:00 -1,7 C -1,7 C -1,6 C 86 % 0 cb 1023,7 hPa 0,0 l/m 0,0 km/h (0 Bft) N 0 0 min 0,000 mm 0 W/m -3,7 C -1,7 C 0,0 km/h (0 Bft) 100,00 %
20.01.2016 20:10 -1,7 C -1,7 C -1,7 C 86 % 0 cb 1023,7 hPa 0,0 l/m 0,0 km/h (0 Bft) N 0 0 min 0,000 mm 0 W/m -3,7 C -1,7 C 0,0 km/h (0 Bft) 100,00 %
20.01.2016 20:20 -1,7 C -1,8 C -1,7 C 86 % 0 cb 1023,9 hPa 0,0 l/m 0,0 km/h (0 Bft) N 0 0 min 0,000 mm 0 W/m -3,7 C -1,7 C 0,0 km/h (0 Bft) 100,00 %
20.01.2016 20:30 -1,8 C -1,8 C -1,7 C 86 % 0 cb 1023,9 hPa 0,0 l/m 0,0 km/h (0 Bft) S 180 0 min 0,000 mm 0 W/m -3,8 C -1,8 C 3,2 km/h (1 Bft) 100,00 %
20.01.2016 20:40 -1,8 C -1,8 C -1,8 C 86 % 0 cb 1023,8 hPa 0,0 l/m 0,0 km/h (0 Bft) S 180 0 min 0,000 mm 0 W/m -3,8 C -1,8 C 3,2 km/h (1 Bft) 100,00 %
20.01.2016 20:50 -1,8 C -1,8 C -1,8 C 86 % 0 cb 1023,9 hPa 0,0 l/m 0,0 km/h (0 Bft) S 180 0 min 0,000 mm 0 W/m -3,8 C -1,8 C 1,6 km/h (1 Bft) 100,00 %
20.01.2016 21:00 -1,8 C -1,8 C -1,8 C 87 % 0 cb 1023,9 hPa 0,0 l/m 0,0 km/h (0 Bft) N 0 0 min 0,000 mm 0 W/m -3,7 C -1,8 C 0,0 km/h (0 Bft) 100,00 %
20.01.2016 21:10 -1,8 C -1,8 C -1,8 C 87 % 0 cb 1024,0 hPa 0,0 l/m 0,0 km/h (0 Bft) S 180 0 min 0,000 mm 0 W/m -3,7 C -1,8 C 3,2 km/h (1 Bft) 100,00 %
20.01.2016 21:20 -1,9 C -1,9 C -1,8 C 88 % 0 cb 1024,0 hPa 0,0 l/m 0,0 km/h (0 Bft) S 180 0 min 0,000 mm 0 W/m -3,6 C -1,9 C 4,8 km/h (1 Bft) 100,00 %
20.01.2016 21:30 -1,9 C -1,9 C -1,9 C 88 % 0 cb 1024,0 hPa 0,0 l/m 0,0 km/h (0 Bft) S 180 0 min 0,000 mm 0 W/m -3,6 C -1,9 C 1,6 km/h (1 Bft) 100,00 %
20.01.2016 21:40 -2,0 C -2,0 C -1,9 C 88 % 0 cb 1024,0 hPa 0,0 l/m 1,6 km/h (1 Bft) S 180 0 min 0,000 mm 0 W/m -3,7 C -2,0 C 4,8 km/h (1 Bft) 100,00 %
20.01.2016 21:50 -2,1 C -2,1 C -2,0 C 89 % 0 cb 1024,1 hPa 0,0 l/m 0,0 km/h (0 Bft) S-SW 202 0 min 0,000 mm 0 W/m -3,7 C -2,1 C 3,2 km/h (1 Bft) 100,00 %
20.01.2016 22:00 -2,1 C -2,1 C -2,1 C 88 % 0 cb 1024,2 hPa 0,0 l/m 0,0 km/h (0 Bft) S-SW 202 0 min 0,000 mm 0 W/m -3,8 C -2,1 C 3,2 km/h (1 Bft) 100,00 %
20.01.2016 22:10 -2,2 C -2,2 C -2,1 C 88 % 0 cb 1024,3 hPa 0,0 l/m 0,0 km/h (0 Bft) N 0 0 min 0,000 mm 0 W/m -3,9 C -2,2 C 0,0 km/h (0 Bft) 100,00 %
20.01.2016 22:20 -2,2 C -2,2 C -2,2 C 88 % 0 cb 1024,3 hPa 0,0 l/m 0,0 km/h (0 Bft) N 0 0 min 0,000 mm 0 W/m -3,9 C -2,2 C 0,0 km/h (0 Bft) 100,00 %
20.01.2016 22:30 -2,2 C -2,2 C -2,2 C 88 % 0 cb 1024,4 hPa 0,0 l/m 0,0 km/h (0 Bft) N 0 0 min 0,000 mm 0 W/m -3,9 C -2,2 C 0,0 km/h (0 Bft) 100,00 %
20.01.2016 22:40 -2,2 C -2,2 C -2,2 C 88 % 0 cb 1024,4 hPa 0,0 l/m 0,0 km/h (0 Bft) N 0 0 min 0,000 mm 0 W/m -3,9 C -2,2 C 0,0 km/h (0 Bft) 99,56 %
20.01.2016 22:50 -2,2 C -2,2 C -2,2 C 88 % 0 cb 1024,3 hPa 0,0 l/m 0,0 km/h (0 Bft) N 0 0 min 0,000 mm 0 W/m -3,9 C -2,2 C 0,0 km/h (0 Bft) 100,00 %
20.01.2016 23:00 -2,3 C -2,3 C -2,2 C 89 % 0 cb 1024,3 hPa 0,0 l/m 0,0 km/h (0 Bft) N 0 0 min 0,000 mm 0 W/m -3,9 C -2,3 C 0,0 km/h (0 Bft) 99,12 %
20.01.2016 23:10 -2,3 C -2,3 C -2,3 C 89 % 0 cb 1024,3 hPa 0,0 l/m 0,0 km/h (0 Bft) N 0 0 min 0,000 mm 0 W/m -3,9 C -2,3 C 0,0 km/h (0 Bft) 99,12 %
20.01.2016 23:20 -2,3 C -2,3 C -2,3 C 89 % 0 cb 1024,3 hPa 0,0 l/m 0,0 km/h (0 Bft) N 0 0 min 0,000 mm 0 W/m -3,9 C -2,3 C 0,0 km/h (0 Bft) 100,00 %
20.01.2016 23:30 -2,3 C -2,3 C -2,3 C 89 % 0 cb 1024,3 hPa 0,0 l/m 0,0 km/h (0 Bft) S-SW 202 0 min 0,000 mm 0 W/m -3,9 C -2,3 C 3,2 km/h (1 Bft) 100,00 %
20.01.2016 23:40 -2,3 C -2,3 C -2,3 C 89 % 0 cb 1024,4 hPa 0,0 l/m 0,0 km/h (0 Bft) S-SW 202 0 min 0,000 mm 0 W/m -3,9 C -2,3 C 1,6 km/h (1 Bft) 100,00 %
20.01.2016 23:50 -2,3 C -2,3 C -2,3 C 90 % 0 cb 1024,7 hPa 0,0 l/m 0,0 km/h (0 Bft) S-SW 202 0 min 0,000 mm 0 W/m -3,7 C -2,3 C 3,2 km/h (1 Bft) 100,00 %
_ Min-Zeit 08:30 08:30 08:30 16:10 00:00 00:20 - 00:20 - - - - - 08:20 08:20 00:20 03:10
Minimum _ -12,6 C -12,6 C -12,5 C 72 % 0 cb 1019,9 hPa - 0,0 km/h (0 Bft) - - - - - -13,7 C -12,5 C 0,0 km/h (0 Bft) 85,53 %
_ Max-Zeit 15:00 15:00 15:00 10:20 00:00 23:50 13:30 13:40 - - 10:20 13:00 12:30 17:00 14:50 01:00 00:10
Maximum _ 0,1 C -0,1 C 0,1 C 94 % 0 cb 1024,7 hPa 0,2 l/m 3,2 km/h
O-SO (1 Bft)
- - 10 min 0,076 mm 427 W/m -3,6 C 0,0 C 6,4 km/h
N-NW (2 Bft)
100,00 %
Durchschnitt _ -6,3 C -6,4 C -6,3 C 87 % 0 cb 1022,2 hPa #0,2 l/m 0,3 km/h (0 Bft) O-SO - #4:20 h #0,329 mm 171 W/m -8,1 C -6,3 C 1,8 km/h (1 Bft) 99,67 %
Wetterstation Gdesweiler